Time;durP1;ratioP1;P1;durP2;ratioP2;P2;SDS_P1;SDS_P2;PMS_P1;PMS_P2;Temp;Humidity;BMP_temperature;BMP_pressure;BME280_temperature;BME280_humidity;BME280_pressure;Samples;Min_cycle;Max_cycle;Signal;HPM_P1;HPM_P2
2023/09/22 00:01:01;;;;;;;;;;;;;;;18.42;69.33;99560.04;107709;276;120395;-59
2023/09/22 00:03:39;;;;;;;;;;;;;;;18.40;69.27;99558.38;107728;276;105556;-59
2023/09/22 00:06:12;;;;;;;;;;;;;;;18.37;69.28;99559.34;107740;276;112119;-53
2023/09/22 00:08:43;;;;;;;;;;;;;;;18.35;69.32;99559.21;107701;276;96327;-54
2023/09/22 00:11:13;;;;;;;;;;;;;;;18.33;69.34;99557.98;107666;277;97811;-55
2023/09/22 00:13:43;;;;;;;;;;;;;;;18.35;69.45;99555.92;107556;277;121910;-55
2023/09/22 00:16:16;;;;;;;;;;;;;;;18.38;69.37;99553.55;107667;276;104712;-55
2023/09/22 00:18:53;;;;;;;;;;;;;;;18.38;69.34;99555.94;107630;276;113992;-54
2023/09/22 00:21:31;;;;;;;;;;;;;;;18.38;69.49;99553.91;107635;276;94087;-54
2023/09/22 00:24:03;;;;;;;;;;;;;;;18.37;69.30;99553.36;107752;276;97910;-54
2023/09/22 00:26:46;;;;;;;;;;;;;;;18.35;69.46;99550.52;107714;276;120141;-54
2023/09/22 00:29:20;;;;;;;;;;;;;;;18.32;69.34;99549.94;107682;276;105412;-54
2023/09/22 00:31:51;;;;;;;;;;;;;;;18.28;69.67;99543.73;107676;276;114991;-54
2023/09/22 00:34:24;;;;;;;;;;;;;;;18.26;69.40;99546.78;107662;276;95944;-54
2023/09/22 00:36:57;;;;;;;;;;;;;;;18.25;69.59;99545.23;107677;276;98198;-54
2023/09/22 00:39:34;;;;;;;;;;;;;;;18.25;69.51;99548.67;107512;276;122181;-54
2023/09/22 00:42:09;;;;;;;;;;;;;;;18.21;69.72;99541.98;107651;276;105014;-54
2023/09/22 00:44:44;;;;;;;;;;;;;;;18.22;69.72;99545.41;107624;276;114547;-54
2023/09/22 00:47:19;;;;;;;;;;;;;;;18.23;69.85;99541.50;107547;276;95073;-57
2023/09/22 00:49:58;;;;;;;;;;;;;;;18.25;69.93;99541.77;107726;276;98025;-55
2023/09/22 00:52:35;;;;;;;;;;;;;;;18.27;69.90;99539.07;107659;276;120903;-55
2023/09/22 00:55:10;;;;;;;;;;;;;;;18.23;69.96;99532.96;107627;276;105426;-54
2023/09/22 00:57:43;;;;;;;;;;;;;;;18.18;70.11;99529.09;107714;276;113167;-54
2023/09/22 01:00:15;;;;;;;;;;;;;;;18.14;69.98;99528.23;107623;276;94392;-55
2023/09/22 01:02:47;;;;;;;;;;;;;;;18.09;70.14;99525.84;107667;276;97152;-58
2023/09/22 01:05:26;;;;;;;;;;;;;;;18.04;70.41;99527.83;107683;276;120471;-56
2023/09/22 01:07:58;;;;;;;;;;;;;;;18.04;70.26;99524.25;107548;277;104975;-55
2023/09/22 01:10:40;;;;;;;;;;;;;;;18.03;70.38;99530.60;107631;276;113250;-55
2023/09/22 01:13:11;;;;;;;;;;;;;;;18.02;70.52;99527.48;107622;276;96587;-55
2023/09/22 01:18:40;;;;;;;;;;;;;;;18.06;70.70;99518.98;107662;276;120013;-56
2023/09/22 01:21:21;;;;;;;;;;;;;;;18.06;70.55;99522.55;107706;276;105310;-56
2023/09/22 01:23:54;;;;;;;;;;;;;;;18.01;70.65;99523.80;107745;276;113996;-55
2023/09/22 01:26:31;;;;;;;;;;;;;;;17.96;70.57;99521.67;107699;276;93884;-59
2023/09/22 01:29:04;;;;;;;;;;;;;;;17.95;70.77;99521.21;107752;276;98266;-58
2023/09/22 01:31:35;;;;;;;;;;;;;;;17.93;71.08;99517.75;107722;277;120836;-59
2023/09/22 01:34:08;;;;;;;;;;;;;;;17.90;71.07;99518.93;107674;276;104867;-59
2023/09/22 01:36:42;;;;;;;;;;;;;;;17.88;71.11;99515.13;107686;277;113663;-57
2023/09/22 01:39:16;;;;;;;;;;;;;;;17.87;71.22;99512.50;107690;277;96494;-57
2023/09/22 01:41:46;;;;;;;;;;;;;;;17.84;71.21;99507.56;107674;277;97492;-55
2023/09/22 01:44:21;;;;;;;;;;;;;;;17.83;71.18;99501.81;107635;277;120815;-53
2023/09/22 01:46:57;;;;;;;;;;;;;;;17.85;71.27;99501.45;107658;276;103524;-59
2023/09/22 01:49:29;;;;;;;;;;;;;;;17.86;71.19;99502.88;107676;277;113232;-59
2023/09/22 01:52:05;;;;;;;;;;;;;;;17.86;71.40;99502.66;107700;277;93630;-54
2023/09/22 01:54:38;;;;;;;;;;;;;;;17.84;71.37;99499.24;107655;276;97133;-55
2023/09/22 01:57:10;;;;;;;;;;;;;;;17.80;71.43;99498.39;107632;277;121473;-57
2023/09/22 01:59:41;;;;;;;;;;;;;;;17.77;71.36;99498.53;107718;277;104197;-56
2023/09/22 02:02:11;;;;;;;;;;;;;;;17.75;71.83;99498.29;107706;277;114131;-53
2023/09/22 02:04:47;;;;;;;;;;;;;;;17.72;71.82;99498.58;107639;276;96227;-54
2023/09/22 02:07:25;;;;;;;;;;;;;;;17.70;71.83;99501.13;107644;276;97194;-54
2023/09/22 02:10:00;;;;;;;;;;;;;;;17.70;71.92;99499.38;107493;276;121145;-53
2023/09/22 02:12:37;;;;;;;;;;;;;;;17.72;72.00;99498.02;107708;276;103844;-54
2023/09/22 02:15:12;;;;;;;;;;;;;;;17.71;72.10;99495.03;107705;276;114584;-55
2023/09/22 02:17:46;;;;;;;;;;;;;;;17.74;72.14;99499.75;107697;277;93303;-54
2023/09/22 02:20:22;;;;;;;;;;;;;;;17.70;72.15;99497.25;107757;276;98074;-53
2023/09/22 02:23:03;;;;;;;;;;;;;;;17.68;72.13;99500.39;107729;276;120419;-59
2023/09/22 02:25:36;;;;;;;;;;;;;;;17.66;72.34;99494.10;107726;276;103805;-58
2023/09/22 02:28:16;;;;;;;;;;;;;;;17.62;72.12;99495.41;107649;276;114486;-55
2023/09/22 02:30:48;;;;;;;;;;;;;;;17.57;72.32;99497.72;107645;276;96659;-56
2023/09/22 02:33:23;;;;;;;;;;;;;;;17.55;72.19;99491.08;107666;276;96860;-59
2023/09/22 02:36:00;;;;;;;;;;;;;;;17.55;72.58;99489.50;107691;276;120136;-55
2023/09/22 02:38:35;;;;;;;;;;;;;;;17.54;72.69;99491.34;107669;277;105728;-54
2023/09/22 02:41:07;;;;;;;;;;;;;;;17.55;72.50;99487.86;107650;276;113446;-58
2023/09/22 02:43:43;;;;;;;;;;;;;;;17.54;72.36;99490.77;107530;276;94632;-58
2023/09/22 02:46:19;;;;;;;;;;;;;;;17.54;72.53;99491.66;107578;276;97606;-54
2023/09/22 02:48:58;;;;;;;;;;;;;;;17.52;72.71;99487.53;107671;276;121800;-54
2023/09/22 02:51:36;;;;;;;;;;;;;;;17.52;72.67;99490.91;107716;276;104902;-58
2023/09/22 02:54:08;;;;;;;;;;;;;;;17.50;72.54;99485.48;107712;276;114556;-58
2023/09/22 02:56:43;;;;;;;;;;;;;;;17.48;72.61;99486.98;107702;276;93393;-54
2023/09/22 02:59:20;;;;;;;;;;;;;;;17.43;72.76;99483.22;107649;276;97315;-53
2023/09/22 03:01:50;;;;;;;;;;;;;;;17.34;73.16;99485.02;107689;276;120282;-56
2023/09/22 03:04:21;;;;;;;;;;;;;;;17.31;73.30;99485.10;107659;276;103709;-57
2023/09/22 03:06:56;;;;;;;;;;;;;;;17.28;73.29;99486.42;107644;276;114582;-56
2023/09/22 03:09:38;;;;;;;;;;;;;;;17.26;73.55;99485.09;107646;276;96460;-54
2023/09/22 03:12:08;;;;;;;;;;;;;;;17.23;73.42;99480.42;107702;276;98187;-58
2023/09/22 03:14:49;;;;;;;;;;;;;;;17.21;73.57;99477.88;107645;276;121398;-58
2023/09/22 03:17:22;;;;;;;;;;;;;;;17.22;73.81;99476.15;107542;276;105833;-55
2023/09/22 03:19:52;;;;;;;;;;;;;;;17.22;73.61;99474.79;107689;276;114463;-54
2023/09/22 03:22:25;;;;;;;;;;;;;;;17.21;73.56;99473.79;107636;276;96998;-58
2023/09/22 03:25:04;;;;;;;;;;;;;;;17.21;73.60;99470.35;107710;276;96783;-58
2023/09/22 03:27:35;;;;;;;;;;;;;;;17.23;73.91;99470.42;107711;276;120637;-53
2023/09/22 03:30:10;;;;;;;;;;;;;;;17.24;73.81;99471.58;107482;277;104926;-53
2023/09/22 03:32:43;;;;;;;;;;;;;;;17.23;73.76;99470.14;107649;276;113534;-59
2023/09/22 03:35:14;;;;;;;;;;;;;;;17.22;73.98;99474.56;107703;276;95560;-60
2023/09/22 03:37:48;;;;;;;;;;;;;;;17.22;73.82;99467.67;107742;276;96752;-59
2023/09/22 03:40:32;;;;;;;;;;;;;;;17.21;74.01;99469.09;107700;277;120845;-58
2023/09/22 03:43:06;;;;;;;;;;;;;;;17.21;73.94;99469.48;107682;276;106984;-54
2023/09/22 03:45:43;;;;;;;;;;;;;;;17.21;73.95;99470.61;107669;276;114417;-53
2023/09/22 03:48:20;;;;;;;;;;;;;;;17.20;73.85;99467.44;107707;276;95198;-57
2023/09/22 03:51:11;;;;;;;;;;;;;;;17.18;73.88;99467.14;107693;277;96123;-58
2023/09/22 03:53:45;;;;;;;;;;;;;;;17.11;73.99;99469.08;107756;276;120880;-59
2023/09/22 03:56:15;;;;;;;;;;;;;;;17.06;74.16;99469.58;107763;276;105221;-59
2023/09/22 03:58:56;;;;;;;;;;;;;;;17.01;74.21;99469.33;107067;277;115514;-59
2023/09/22 04:01:31;;;;;;;;;;;;;;;16.99;74.57;99471.54;107738;276;94224;-58
2023/09/22 04:04:04;;;;;;;;;;;;;;;16.97;74.57;99472.19;107685;277;97407;-56
2023/09/22 04:06:42;;;;;;;;;;;;;;;16.97;74.84;99470.33;107685;276;119690;-54
2023/09/22 04:09:13;;;;;;;;;;;;;;;16.98;74.82;99466.61;107619;276;106047;-54
2023/09/22 04:11:43;;;;;;;;;;;;;;;16.99;74.85;99472.59;107634;276;113825;-56
2023/09/22 04:14:19;;;;;;;;;;;;;;;16.98;74.89;99480.77;107634;276;95560;-57
2023/09/22 04:16:54;;;;;;;;;;;;;;;17.00;75.09;99481.11;107654;276;96319;-54
2023/09/22 04:19:27;;;;;;;;;;;;;;;17.02;74.91;99485.01;107661;276;119548;-53
2023/09/22 04:22:00;;;;;;;;;;;;;;;17.03;74.87;99488.63;107709;276;104944;-55
2023/09/22 04:24:32;;;;;;;;;;;;;;;17.05;74.89;99482.27;107642;276;114745;-55
2023/09/22 04:27:09;;;;;;;;;;;;;;;17.11;75.20;99480.59;107626;276;96551;-54
2023/09/22 04:29:41;;;;;;;;;;;;;;;17.14;75.02;99479.38;107650;276;97041;-54
2023/09/22 04:32:11;;;;;;;;;;;;;;;17.17;75.03;99478.27;107713;276;120416;-59
2023/09/22 04:34:44;;;;;;;;;;;;;;;17.22;75.03;99474.08;107781;276;104934;-60
2023/09/22 04:37:23;;;;;;;;;;;;;;;17.25;75.02;99475.48;107720;276;114463;-57
2023/09/22 04:39:56;;;;;;;;;;;;;;;17.28;75.29;99477.58;107712;276;93420;-57
2023/09/22 04:42:28;;;;;;;;;;;;;;;17.29;75.02;99475.83;107701;277;96789;-57
2023/09/22 04:45:09;;;;;;;;;;;;;;;17.31;75.18;99469.48;107719;276;120933;-57
2023/09/22 04:47:46;;;;;;;;;;;;;;;17.36;75.04;99469.91;107705;276;105680;-58
2023/09/22 04:50:22;;;;;;;;;;;;;;;17.37;74.96;99463.77;107629;276;114736;-58
2023/09/22 04:52:58;;;;;;;;;;;;;;;17.44;75.00;99463.73;107645;276;95686;-53
2023/09/22 04:55:29;;;;;;;;;;;;;;;17.47;75.01;99461.75;107688;276;97302;-54
2023/09/22 04:58:04;;;;;;;;;;;;;;;17.53;74.90;99460.62;107723;276;120208;-59
2023/09/22 05:00:37;;;;;;;;;;;;;;;17.54;74.82;99458.07;107690;276;104446;-59
2023/09/22 05:03:10;;;;;;;;;;;;;;;17.58;74.80;99452.11;107501;276;114002;-54
2023/09/22 05:05:41;;;;;;;;;;;;;;;17.64;74.83;99440.70;107670;276;93610;-53
2023/09/22 05:08:14;;;;;;;;;;;;;;;17.72;74.74;99439.80;107744;276;99123;-59
2023/09/22 05:10:52;;;;;;;;;;;;;;;17.78;74.63;99441.60;107738;276;121931;-54
2023/09/22 05:13:28;;;;;;;;;;;;;;;17.85;74.42;99444.14;107761;276;106008;-60
2023/09/22 05:16:09;;;;;;;;;;;;;;;17.91;74.36;99450.73;107797;276;115324;-58
2023/09/22 05:18:40;;;;;;;;;;;;;;;17.98;74.14;99450.25;107737;276;96355;-57
2023/09/22 05:21:10;;;;;;;;;;;;;;;18.05;74.00;99453.70;107735;276;97064;-56
2023/09/22 05:23:44;;;;;;;;;;;;;;;18.12;73.82;99451.35;107717;276;121312;-56
2023/09/22 05:26:16;;;;;;;;;;;;;;;18.19;73.76;99453.27;107738;276;105056;-57
2023/09/22 05:28:52;;;;;;;;;;;;;;;18.24;73.67;99449.42;107770;277;113069;-59
2023/09/22 05:31:27;;;;;;;;;;;;;;;18.36;73.53;99445.45;107600;277;96807;-59
2023/09/22 05:34:01;;;;;;;;;;;;;;;18.48;73.20;99448.13;107582;276;95171;-59
2023/09/22 05:36:39;;;;;;;;;;;;;;;18.58;73.19;99442.96;107700;276;121632;-52
2023/09/22 05:39:15;;;;;;;;;;;;;;;18.69;73.01;99446.13;107667;277;106299;-53
2023/09/22 05:41:51;;;;;;;;;;;;;;;19.14;73.01;99448.15;107488;277;116125;-53
2023/09/22 05:44:29;;;;;;;;;;;;;;;20.59;71.68;99442.33;107649;276;94044;-54
2023/09/22 05:47:09;;;;;;;;;;;;;;;22.17;69.10;99437.86;107734;276;97884;-59
2023/09/22 05:49:42;;;;;;;;;;;;;;;23.12;66.93;99434.13;107849;276;117849;-60
2023/09/22 05:52:15;;;;;;;;;;;;;;;23.58;64.42;99438.61;107778;276;105661;-57
2023/09/22 05:54:50;;;;;;;;;;;;;;;23.80;62.79;99437.84;107616;276;111918;-58
2023/09/22 05:57:24;;;;;;;;;;;;;;;23.54;63.00;99436.58;107513;276;95412;-59
2023/09/22 05:59:58;;;;;;;;;;;;;;;22.85;62.19;99434.77;107666;276;95378;-60
2023/09/22 06:02:29;;;;;;;;;;;;;;;22.27;62.80;99438.23;107660;276;121724;-60
2023/09/22 06:05:06;;;;;;;;;;;;;;;21.94;63.39;99440.05;107548;277;105798;-59
2023/09/22 06:07:38;;;;;;;;;;;;;;;21.71;63.48;99442.98;107758;277;116032;-57
2023/09/22 06:10:12;;;;;;;;;;;;;;;21.63;63.96;99443.25;107652;276;93642;-58
2023/09/22 06:12:53;;;;;;;;;;;;;;;21.73;64.29;99440.16;107825;276;98043;-59
2023/09/22 06:15:32;;;;;;;;;;;;;;;21.80;64.29;99442.70;107850;276;119527;-59
2023/09/22 06:18:08;;;;;;;;;;;;;;;21.64;63.79;99448.64;107701;276;104063;-56
2023/09/22 06:20:42;;;;;;;;;;;;;;;21.49;64.05;99451.20;107711;276;113994;-55
2023/09/22 06:23:17;;;;;;;;;;;;;;;21.35;64.38;99451.77;107677;276;93196;-55
2023/09/22 06:25:50;;;;;;;;;;;;;;;21.24;64.54;99458.25;107731;276;96076;-56
2023/09/22 06:28:29;;;;;;;;;;;;;;;21.07;64.89;99459.35;107804;276;120949;-60
2023/09/22 06:31:02;;;;;;;;;;;;;;;20.99;65.26;99454.98;107831;276;107535;-56
2023/09/22 06:33:34;;;;;;;;;;;;;;;20.88;65.47;99461.45;107665;276;113066;-60
2023/09/22 06:36:09;;;;;;;;;;;;;;;20.79;65.80;99460.59;107694;276;94423;-54
2023/09/22 06:38:46;;;;;;;;;;;;;;;20.82;66.13;99461.68;107436;277;97448;-54
2023/09/22 06:41:23;;;;;;;;;;;;;;;20.91;66.08;99462.96;107667;277;120692;-57
2023/09/22 06:44:00;;;;;;;;;;;;;;;21.10;66.29;99466.54;107652;276;104315;-57
2023/09/22 06:46:35;;;;;;;;;;;;;;;21.46;66.11;99464.41;107689;276;115112;-60
2023/09/22 06:49:07;;;;;;;;;;;;;;;21.64;65.90;99457.60;107807;276;94321;-60
2023/09/22 06:51:42;;;;;;;;;;;;;;;21.80;65.87;99459.64;107765;277;98137;-58
2023/09/22 06:54:20;;;;;;;;;;;;;;;21.92;65.56;99460.97;107600;276;121104;-58
2023/09/22 06:57:01;;;;;;;;;;;;;;;21.95;65.11;99468.48;107696;276;105099;-54
2023/09/22 06:59:37;;;;;;;;;;;;;;;21.97;65.21;99467.96;107698;276;113832;-54
2023/09/22 07:02:08;;;;;;;;;;;;;;;22.01;64.90;99474.33;107697;276;94386;-53
2023/09/22 07:04:42;;;;;;;;;;;;;;;22.06;64.73;99477.20;107667;276;97937;-52
2023/09/22 07:07:18;;;;;;;;;;;;;;;22.07;64.65;99474.93;107686;276;119880;-56
2023/09/22 07:09:50;;;;;;;;;;;;;;;22.11;64.66;99477.98;107702;276;103937;-54
2023/09/22 07:12:27;;;;;;;;;;;;;;;22.17;64.46;99474.74;107622;276;113007;-55
2023/09/22 07:15:01;;;;;;;;;;;;;;;22.18;64.07;99479.63;107641;276;94022;-55
2023/09/22 07:17:39;;;;;;;;;;;;;;;22.21;64.29;99481.20;107699;276;97474;-58
2023/09/22 07:20:21;;;;;;;;;;;;;;;22.24;64.24;99475.89;107658;276;121379;-59
2023/09/22 07:22:58;;;;;;;;;;;;;;;22.32;64.45;99472.47;107652;276;105496;-59
2023/09/22 07:25:33;;;;;;;;;;;;;;;22.35;63.52;99475.91;107622;276;114578;-59
2023/09/22 07:28:05;;;;;;;;;;;;;;;22.34;63.78;99476.64;107674;277;94986;-58
2023/09/22 07:30:39;;;;;;;;;;;;;;;22.36;63.63;99477.22;107662;276;98204;-58
2023/09/22 07:33:13;;;;;;;;;;;;;;;22.50;63.68;99478.53;107667;273;121601;-58
2023/09/22 07:35:48;;;;;;;;;;;;;;;22.79;63.16;99481.23;107723;276;105870;-58
2023/09/22 07:38:26;;;;;;;;;;;;;;;23.26;63.20;99482.02;107685;277;113344;-59
2023/09/22 07:40:57;;;;;;;;;;;;;;;23.80;62.69;99481.70;107689;276;94971;-59
2023/09/22 07:43:35;;;;;;;;;;;;;;;24.56;61.65;99480.39;107752;276;96612;-59
2023/09/22 07:46:12;;;;;;;;;;;;;;;25.45;59.93;99484.80;107719;276;119961;-58
2023/09/22 07:48:50;;;;;;;;;;;;;;;26.13;59.21;99481.27;107742;276;102409;-58
2023/09/22 07:51:25;;;;;;;;;;;;;;;27.22;57.43;99487.86;107765;276;113382;-58
2023/09/22 07:53:57;;;;;;;;;;;;;;;28.04;54.95;99484.27;107673;276;95242;-58
2023/09/22 07:56:37;;;;;;;;;;;;;;;29.05;53.50;99482.98;107656;276;96784;-57
2023/09/22 07:59:10;;;;;;;;;;;;;;;30.04;50.47;99476.05;107676;276;119841;-58
2023/09/22 08:01:47;;;;;;;;;;;;;;;31.13;50.46;99469.98;107695;276;105990;-59
2023/09/22 08:04:26;;;;;;;;;;;;;;;31.83;48.47;99458.32;107646;276;114722;-58
2023/09/22 08:07:06;;;;;;;;;;;;;;;32.48;46.76;99455.86;107649;276;93290;-59
2023/09/22 08:09:42;;;;;;;;;;;;;;;32.99;46.30;99458.13;107689;276;98162;-58
2023/09/22 08:12:12;;;;;;;;;;;;;;;33.05;44.25;99459.96;107656;276;120759;-59
2023/09/22 08:14:45;;;;;;;;;;;;;;;32.64;42.40;99453.34;107555;277;107650;-58
2023/09/22 08:17:17;;;;;;;;;;;;;;;32.55;43.74;99453.02;107520;277;114246;-58
2023/09/22 08:19:51;;;;;;;;;;;;;;;32.28;43.56;99443.61;107697;276;95200;-58
2023/09/22 08:22:25;;;;;;;;;;;;;;;31.45;43.08;99447.13;107548;276;97948;-58
2023/09/22 08:24:56;;;;;;;;;;;;;;;30.88;44.16;99448.73;107695;276;119337;-59
2023/09/22 08:27:32;;;;;;;;;;;;;;;30.50;44.64;99459.83;107708;276;104650;-58
2023/09/22 08:30:10;;;;;;;;;;;;;;;30.11;45.06;99464.55;107671;276;114446;-58
2023/09/22 08:32:53;;;;;;;;;;;;;;;30.22;45.46;99466.42;107740;276;92821;-58
2023/09/22 08:35:29;;;;;;;;;;;;;;;30.67;45.42;99470.52;107654;276;96478;-59
2023/09/22 08:38:00;;;;;;;;;;;;;;;30.94;44.37;99478.04;107683;276;120777;-59
2023/09/22 08:40:36;;;;;;;;;;;;;;;30.73;44.81;99480.23;107671;276;105830;-57
2023/09/22 08:43:08;;;;;;;;;;;;;;;30.81;44.33;99485.40;107715;276;115284;-60
2023/09/22 08:45:41;;;;;;;;;;;;;;;30.97;44.68;99489.97;107671;277;92441;-57
2023/09/22 08:48:17;;;;;;;;;;;;;;;31.06;44.69;99486.58;107685;276;97708;-58
2023/09/22 08:50:54;;;;;;;;;;;;;;;30.78;44.12;99480.96;107683;276;118649;-56
2023/09/22 08:53:27;;;;;;;;;;;;;;;30.35;44.34;99480.98;107485;277;108660;-54
2023/09/22 08:56:10;;;;;;;;;;;;;;;30.13;45.15;99470.84;107701;276;114858;-56
2023/09/22 08:58:46;;;;;;;;;;;;;;;29.91;45.60;99475.64;107646;276;94517;-55
2023/09/22 09:01:19;;;;;;;;;;;;;;;29.58;45.33;99470.77;107645;276;96595;-56
2023/09/22 09:03:52;;;;;;;;;;;;;;;29.22;45.72;99460.31;107479;277;123350;-55
2023/09/22 09:06:25;;;;;;;;;;;;;;;28.94;46.50;99455.39;107678;276;106499;-56
2023/09/22 09:09:12;;;;;;;;;;;;;;;28.87;46.93;99451.73;107610;276;113076;-57
2023/09/22 09:12:00;;;;;;;;;;;;;;;28.99;47.20;99448.04;107704;276;94695;-60
2023/09/22 09:14:34;;;;;;;;;;;;;;;29.11;47.48;99448.61;107820;277;97267;-61
2023/09/22 09:17:19;;;;;;;;;;;;;;;29.55;47.27;99437.05;107722;277;119683;-55
2023/09/22 09:19:56;;;;;;;;;;;;;;;30.03;46.28;99419.83;107572;277;106008;-55
2023/09/22 09:22:35;;;;;;;;;;;;;;;30.39;45.84;99413.16;107685;276;114640;-55
2023/09/22 09:25:09;;;;;;;;;;;;;;;30.58;44.77;99413.58;107725;276;92839;-56
2023/09/22 09:27:44;;;;;;;;;;;;;;;30.71;44.85;99405.58;107686;277;96307;-53
2023/09/22 09:30:18;;;;;;;;;;;;;;;30.74;44.39;99408.11;107705;276;121563;-54
2023/09/22 09:33:09;;;;;;;;;;;;;;;30.58;43.97;99408.80;107631;277;105039;-54
2023/09/22 09:35:41;;;;;;;;;;;;;;;30.56;44.46;99415.58;107646;276;114710;-54
2023/09/22 09:38:17;;;;;;;;;;;;;;;30.37;43.99;99422.39;107692;276;95101;-55
2023/09/22 09:40:49;;;;;;;;;;;;;;;29.94;44.09;99424.27;107680;277;96514;-53
2023/09/22 09:43:25;;;;;;;;;;;;;;;29.53;44.82;99424.09;107677;276;119742;-54
2023/09/22 09:46:05;;;;;;;;;;;;;;;29.29;45.53;99425.69;107684;276;104502;-55
2023/09/22 09:48:38;;;;;;;;;;;;;;;28.94;45.72;99420.80;107727;276;114803;-55
2023/09/22 09:51:20;;;;;;;;;;;;;;;28.57;46.42;99413.11;107740;276;92868;-54
2023/09/22 09:53:59;;;;;;;;;;;;;;;28.35;46.97;99413.27;107692;277;97482;-56
2023/09/22 09:56:32;;;;;;;;;;;;;;;28.18;47.13;99411.38;107564;277;119187;-56
2023/09/22 09:59:08;;;;;;;;;;;;;;;28.01;47.78;99416.96;107683;276;109438;-55
2023/09/22 10:01:46;;;;;;;;;;;;;;;27.85;48.09;99414.14;107699;277;113277;-61
2023/09/22 10:04:24;;;;;;;;;;;;;;;27.79;48.20;99411.02;107710;276;93327;-59
2023/09/22 10:07:05;;;;;;;;;;;;;;;27.61;48.66;99411.36;107704;276;97229;-57
2023/09/22 10:09:37;;;;;;;;;;;;;;;27.45;48.89;99408.30;107672;276;120275;-58
2023/09/22 10:12:08;;;;;;;;;;;;;;;27.50;49.02;99411.71;107646;277;105287;-55
2023/09/22 10:14:53;;;;;;;;;;;;;;;27.43;48.97;99410.81;107674;277;115051;-56
2023/09/22 10:17:28;;;;;;;;;;;;;;;27.33;49.30;99412.77;107721;276;93072;-59
2023/09/22 10:20:06;;;;;;;;;;;;;;;27.26;49.69;99412.20;107754;276;95862;-58
2023/09/22 10:23:06;;;;;;;;;;;;;;;27.21;49.82;99413.71;107727;276;119419;-60
2023/09/22 10:25:39;;;;;;;;;;;;;;;27.14;50.19;99406.88;107740;277;106834;-59
2023/09/22 10:28:26;;;;;;;;;;;;;;;27.09;50.15;99403.94;107672;276;115135;-53
2023/09/22 10:31:17;;;;;;;;;;;;;;;26.86;50.36;99409.27;107751;276;94926;-54
2023/09/22 10:34:05;;;;;;;;;;;;;;;26.72;50.62;99404.50;107680;276;96606;-53
2023/09/22 10:36:48;;;;;;;;;;;;;;;26.59;50.76;99400.69;107712;276;119753;-55
2023/09/22 10:39:21;;;;;;;;;;;;;;;26.64;50.94;99402.21;107710;276;105292;-55
2023/09/22 10:42:02;;;;;;;;;;;;;;;26.68;51.16;99393.22;107643;269;114100;-54
2023/09/22 10:44:52;;;;;;;;;;;;;;;26.88;51.05;99389.74;107673;276;94336;-54
2023/09/22 10:47:35;;;;;;;;;;;;;;;26.97;50.84;99388.27;107555;276;97855;-55
2023/09/22 10:50:19;;;;;;;;;;;;;;;27.00;50.74;99387.56;107718;276;120658;-60
2023/09/22 10:52:54;;;;;;;;;;;;;;;26.92;50.61;99391.70;107715;276;106043;-56
2023/09/22 10:55:32;;;;;;;;;;;;;;;26.92;50.83;99392.34;107673;276;114827;-56
2023/09/22 10:58:07;;;;;;;;;;;;;;;26.96;50.85;99401.70;107685;276;95225;-53
2023/09/22 11:00:55;;;;;;;;;;;;;;;26.84;50.81;99406.00;107718;276;97696;-59
2023/09/22 11:03:40;;;;;;;;;;;;;;;26.75;50.86;99403.70;107679;276;120673;-57
2023/09/22 11:06:14;;;;;;;;;;;;;;;26.64;50.97;99400.60;107730;276;104374;-54
2023/09/22 11:08:52;;;;;;;;;;;;;;;26.57;51.18;99400.74;107457;277;113863;-54
2023/09/22 11:11:28;;;;;;;;;;;;;;;26.61;51.14;99401.41;107724;277;95588;-55
2023/09/22 11:14:01;;;;;;;;;;;;;;;26.65;51.11;99399.08;107554;277;97656;-54
2023/09/22 11:16:39;;;;;;;;;;;;;;;26.72;51.28;99406.70;107655;276;120520;-56
2023/09/22 11:19:18;;;;;;;;;;;;;;;26.67;51.02;99404.08;107665;276;105130;-56
2023/09/22 11:21:54;;;;;;;;;;;;;;;26.77;50.68;99394.19;107715;276;115278;-58
2023/09/22 11:24:33;;;;;;;;;;;;;;;26.83;50.86;99379.52;107704;276;93741;-58
2023/09/22 11:27:06;;;;;;;;;;;;;;;26.90;50.88;99373.45;107726;276;95307;-59
2023/09/22 11:29:40;;;;;;;;;;;;;;;26.86;50.74;99378.16;107694;276;119375;-60
2023/09/22 11:32:31;;;;;;;;;;;;;;;26.86;51.00;99385.20;107724;276;103482;-57
2023/09/22 11:35:05;;;;;;;;;;;;;;;26.84;51.04;99381.86;107654;276;114983;-56
2023/09/22 11:37:35;;;;;;;;;;;;;;;26.87;51.13;99379.52;107628;276;94928;-55
2023/09/22 11:40:16;;;;;;;;;;;;;;;26.95;51.06;99382.63;107657;277;97014;-56
2023/09/22 11:42:50;;;;;;;;;;;;;;;26.95;50.67;99380.83;107680;276;121013;-55
2023/09/22 11:45:25;;;;;;;;;;;;;;;26.91;50.93;99381.08;107685;277;106822;-54
2023/09/22 11:48:05;;;;;;;;;;;;;;;26.87;50.92;99381.98;107700;277;115416;-58
2023/09/22 11:50:37;;;;;;;;;;;;;;;26.79;50.88;99382.24;107647;276;93205;-58
2023/09/22 11:53:18;;;;;;;;;;;;;;;26.71;51.11;99379.68;107725;276;96935;-57
2023/09/22 11:55:51;;;;;;;;;;;;;;;26.67;51.48;99387.33;107707;276;119704;-58
2023/09/22 11:58:28;;;;;;;;;;;;;;;26.54;51.72;99398.34;107204;277;494360;-58
2023/09/22 12:00:58;;;;;;;;;;;;;;;26.43;51.86;99403.23;107685;276;114775;-55
2023/09/22 12:03:36;;;;;;;;;;;;;;;26.43;51.81;99402.29;107654;277;94497;-54
2023/09/22 12:06:15;;;;;;;;;;;;;;;26.42;52.09;99404.63;107718;276;97297;-56
2023/09/22 12:08:48;;;;;;;;;;;;;;;26.45;52.18;99404.90;107634;276;121471;-55
2023/09/22 12:11:22;;;;;;;;;;;;;;;26.48;52.18;99410.56;107674;276;105244;-60
2023/09/22 12:13:58;;;;;;;;;;;;;;;26.43;52.09;99413.32;107665;276;113667;-59
2023/09/22 12:16:30;;;;;;;;;;;;;;;26.30;52.06;99411.87;107679;276;93556;-60
2023/09/22 12:19:04;;;;;;;;;;;;;;;26.25;52.20;99412.95;107666;277;96369;-60
2023/09/22 12:21:42;;;;;;;;;;;;;;;26.14;52.26;99415.79;107720;276;120284;-55
2023/09/22 12:24:14;;;;;;;;;;;;;;;26.00;52.37;99415.38;107698;276;105873;-55
2023/09/22 12:26:47;;;;;;;;;;;;;;;25.90;52.72;99420.55;107686;276;115446;-60
2023/09/22 12:29:23;;;;;;;;;;;;;;;25.88;52.79;99424.44;107701;276;93481;-59
2023/09/22 12:31:54;;;;;;;;;;;;;;;25.93;52.93;99423.76;107752;276;99314;-54
2023/09/22 12:34:33;;;;;;;;;;;;;;;25.96;53.19;99421.58;107671;276;120896;-54
2023/09/22 12:37:07;;;;;;;;;;;;;;;25.96;53.17;99421.95;107549;276;105197;-57
2023/09/22 12:39:38;;;;;;;;;;;;;;;25.92;53.21;99420.85;107669;276;113622;-58
2023/09/22 12:42:14;;;;;;;;;;;;;;;25.85;52.94;99418.52;107669;277;92092;-60
2023/09/22 12:44:48;;;;;;;;;;;;;;;25.85;53.09;99424.77;107709;276;95953;-59
2023/09/22 12:47:29;;;;;;;;;;;;;;;25.94;53.12;99417.87;107685;276;120243;-55
2023/09/22 12:50:09;;;;;;;;;;;;;;;25.93;53.10;99410.38;107613;276;105865;-55
2023/09/22 12:52:47;;;;;;;;;;;;;;;25.87;53.22;99405.73;107711;277;113526;-60
2023/09/22 12:55:18;;;;;;;;;;;;;;;25.89;53.21;99406.75;107692;276;93725;-59
2023/09/22 12:57:50;;;;;;;;;;;;;;;25.85;53.10;99406.57;107695;277;97301;-60
2023/09/22 13:00:23;;;;;;;;;;;;;;;25.84;53.17;99410.52;107752;277;119266;-59
2023/09/22 13:03:00;;;;;;;;;;;;;;;25.88;53.37;99408.54;107709;276;104042;-57
2023/09/22 13:05:35;;;;;;;;;;;;;;;25.86;53.22;99407.59;107662;276;114847;-57
2023/09/22 13:08:18;;;;;;;;;;;;;;;25.84;53.31;99404.70;107687;276;95170;-54
2023/09/22 13:10:51;;;;;;;;;;;;;;;25.86;53.64;99412.85;107493;269;99931;-53
2023/09/22 13:13:26;;;;;;;;;;;;;;;25.82;53.40;99414.55;107665;276;122196;-58
2023/09/22 13:15:56;;;;;;;;;;;;;;;25.81;53.46;99416.47;107683;276;105937;-56
2023/09/22 13:18:32;;;;;;;;;;;;;;;25.76;53.27;99416.41;107679;277;113679;-58
2023/09/22 13:21:12;;;;;;;;;;;;;;;25.76;53.60;99416.02;107700;276;93542;-59
2023/09/22 13:23:43;;;;;;;;;;;;;;;25.80;53.66;99411.39;107770;276;96279;-60
2023/09/22 13:26:27;;;;;;;;;;;;;;;25.84;53.48;99395.30;107704;277;118642;-59